Terminal Aerodrome Forecast
Issued by NWS Atlanta, GA

Home | Current Version | Previous Version | Text Only | Print | Product List | Glossary On
Versions: 1 2 3 4 5 6 7 8 9 10 11 12 13 14 15 16 17 18
000
FTUS42 KFFC 172329
TAFCSG
TAF
KCSG 172329Z 1800/1824 29011KT P6SM SCT050
     FM180100 25005KT P6SM FEW050 SCT250
     FM181300 29005KT P6SM FEW030 SCT250
     FM181600 31008KT P6SM SCT040 BKN200 PROB30 1818/1822 -TSRA
      BKN035CB=

USA.gov is the U.S. government's official web portal to all federal, state and local government web resources and services.